sensor_id;sensor_type;location;lat;lon;timestamp;P1;durP1;ratioP1;P2;durP2;ratioP2
47545;SDS011;50104;52.002;4.688;2022-07-29T00:04:52;3.50;;;1.73;;
47545;SDS011;50104;52.002;4.688;2022-07-29T00:09:53;3.22;;;1.20;;
47545;SDS011;50104;52.002;4.688;2022-07-29T00:14:54;2.50;;;1.58;;
47545;SDS011;50104;52.002;4.688;2022-07-29T00:19:56;1.95;;;1.60;;
47545;SDS011;50104;52.002;4.688;2022-07-29T00:24:57;2.85;;;1.30;;
47545;SDS011;50104;52.002;4.688;2022-07-29T00:29:58;1.50;;;1.30;;
47545;SDS011;50104;52.002;4.688;2022-07-29T00:34:58;3.53;;;1.33;;
47545;SDS011;50104;52.002;4.688;2022-07-29T00:40:18;4.47;;;1.60;;
47545;SDS011;50104;52.002;4.688;2022-07-29T00:45:19;1.63;;;1.30;;
47545;SDS011;50104;52.002;4.688;2022-07-29T00:50:20;1.88;;;1.23;;
47545;SDS011;50104;52.002;4.688;2022-07-29T00:55:21;3.83;;;1.48;;
47545;SDS011;50104;52.002;4.688;2022-07-29T01:00:23;4.70;;;1.60;;
47545;SDS011;50104;52.002;4.688;2022-07-29T01:05:26;2.05;;;1.27;;
47545;SDS011;50104;52.002;4.688;2022-07-29T01:10:29;2.78;;;1.40;;
47545;SDS011;50104;52.002;4.688;2022-07-29T01:15:30;3.40;;;1.90;;
47545;SDS011;50104;52.002;4.688;2022-07-29T01:26:27;1.17;;;1.10;;
47545;SDS011;50104;52.002;4.688;2022-07-29T01:37:05;2.88;;;1.40;;
47545;SDS011;50104;52.002;4.688;2022-07-29T01:47:43;4.35;;;1.63;;
47545;SDS011;50104;52.002;4.688;2022-07-29T01:53:07;2.67;;;1.52;;
47545;SDS011;50104;52.002;4.688;2022-07-29T01:58:10;1.67;;;1.50;;
47545;SDS011;50104;52.002;4.688;2022-07-29T02:03:14;2.85;;;1.40;;
47545;SDS011;50104;52.002;4.688;2022-07-29T02:08:17;2.05;;;1.63;;
47545;SDS011;50104;52.002;4.688;2022-07-29T02:13:20;3.03;;;1.67;;
47545;SDS011;50104;52.002;4.688;2022-07-29T02:18:24;2.80;;;1.55;;
47545;SDS011;50104;52.002;4.688;2022-07-29T02:23:28;2.55;;;1.70;;
47545;SDS011;50104;52.002;4.688;2022-07-29T02:28:32;4.45;;;1.80;;
47545;SDS011;50104;52.002;4.688;2022-07-29T02:33:34;2.65;;;1.30;;
47545;SDS011;50104;52.002;4.688;2022-07-29T02:38:36;3.22;;;1.80;;
47545;SDS011;50104;52.002;4.688;2022-07-29T02:44:15;5.88;;;2.20;;
47545;SDS011;50104;52.002;4.688;2022-07-29T02:54:44;2.95;;;1.77;;
47545;SDS011;50104;52.002;4.688;2022-07-29T03:00:05;2.97;;;1.45;;
47545;SDS011;50104;52.002;4.688;2022-07-29T03:05:09;2.95;;;2.00;;
47545;SDS011;50104;52.002;4.688;2022-07-29T03:10:16;3.15;;;1.90;;
47545;SDS011;50104;52.002;4.688;2022-07-29T03:15:18;3.75;;;1.90;;
47545;SDS011;50104;52.002;4.688;2022-07-29T03:20:19;2.65;;;1.75;;
47545;SDS011;50104;52.002;4.688;2022-07-29T03:25:20;2.40;;;1.58;;
47545;SDS011;50104;52.002;4.688;2022-07-29T03:30:22;5.78;;;2.00;;
47545;SDS011;50104;52.002;4.688;2022-07-29T03:35:23;2.67;;;2.05;;
47545;SDS011;50104;52.002;4.688;2022-07-29T03:40:31;7.63;;;2.58;;
47545;SDS011;50104;52.002;4.688;2022-07-29T03:45:48;4.07;;;2.20;;
47545;SDS011;50104;52.002;4.688;2022-07-29T03:50:53;2.95;;;2.15;;
47545;SDS011;50104;52.002;4.688;2022-07-29T03:55:54;5.10;;;2.25;;
47545;SDS011;50104;52.002;4.688;2022-07-29T04:01:00;3.17;;;2.50;;
47545;SDS011;50104;52.002;4.688;2022-07-29T04:06:03;3.55;;;2.38;;
47545;SDS011;50104;52.002;4.688;2022-07-29T04:11:06;6.22;;;2.75;;
47545;SDS011;50104;52.002;4.688;2022-07-29T04:16:07;2.38;;;2.17;;
47545;SDS011;50104;52.002;4.688;2022-07-29T04:21:08;3.53;;;2.22;;
47545;SDS011;50104;52.002;4.688;2022-07-29T04:26:09;3.50;;;2.38;;
47545;SDS011;50104;52.002;4.688;2022-07-29T04:31:11;2.60;;;2.05;;
47545;SDS011;50104;52.002;4.688;2022-07-29T04:36:13;4.80;;;2.47;;
47545;SDS011;50104;52.002;4.688;2022-07-29T04:41:13;3.28;;;2.53;;
47545;SDS011;50104;52.002;4.688;2022-07-29T04:46:14;3.58;;;2.10;;
47545;SDS011;50104;52.002;4.688;2022-07-29T04:51:15;3.33;;;2.15;;
47545;SDS011;50104;52.002;4.688;2022-07-29T04:56:16;4.32;;;1.70;;
47545;SDS011;50104;52.002;4.688;2022-07-29T05:01:17;5.00;;;2.42;;
47545;SDS011;50104;52.002;4.688;2022-07-29T05:06:19;2.75;;;2.17;;
47545;SDS011;50104;52.002;4.688;2022-07-29T05:11:19;6.78;;;3.05;;
47545;SDS011;50104;52.002;4.688;2022-07-29T05:16:20;4.10;;;2.20;;
47545;SDS011;50104;52.002;4.688;2022-07-29T05:21:21;3.42;;;1.95;;
47545;SDS011;50104;52.002;4.688;2022-07-29T05:26:22;7.28;;;2.13;;
47545;SDS011;50104;52.002;4.688;2022-07-29T05:31:23;5.47;;;2.33;;
47545;SDS011;50104;52.002;4.688;2022-07-29T05:36:23;2.88;;;2.00;;
47545;SDS011;50104;52.002;4.688;2022-07-29T05:41:24;3.55;;;2.30;;
47545;SDS011;50104;52.002;4.688;2022-07-29T05:46:26;7.90;;;1.90;;
47545;SDS011;50104;52.002;4.688;2022-07-29T05:51:26;3.47;;;1.80;;
47545;SDS011;50104;52.002;4.688;2022-07-29T05:56:27;6.55;;;2.80;;
47545;SDS011;50104;52.002;4.688;2022-07-29T06:01:28;3.20;;;1.80;;
47545;SDS011;50104;52.002;4.688;2022-07-29T06:06:29;3.10;;;2.22;;
47545;SDS011;50104;52.002;4.688;2022-07-29T06:11:30;3.78;;;2.10;;
47545;SDS011;50104;52.002;4.688;2022-07-29T06:16:31;5.47;;;2.20;;
47545;SDS011;50104;52.002;4.688;2022-07-29T06:21:31;6.65;;;2.25;;
47545;SDS011;50104;52.002;4.688;2022-07-29T06:26:33;6.18;;;2.13;;
47545;SDS011;50104;52.002;4.688;2022-07-29T06:31:34;5.15;;;2.45;;
47545;SDS011;50104;52.002;4.688;2022-07-29T06:36:35;2.17;;;1.98;;
47545;SDS011;50104;52.002;4.688;2022-07-29T06:41:37;4.85;;;2.30;;
47545;SDS011;50104;52.002;4.688;2022-07-29T06:46:38;5.28;;;2.30;;
47545;SDS011;50104;52.002;4.688;2022-07-29T06:51:39;2.65;;;2.00;;
47545;SDS011;50104;52.002;4.688;2022-07-29T06:56:40;4.53;;;2.20;;
47545;SDS011;50104;52.002;4.688;2022-07-29T07:01:43;3.88;;;1.90;;
47545;SDS011;50104;52.002;4.688;2022-07-29T07:06:44;8.00;;;2.60;;
47545;SDS011;50104;52.002;4.688;2022-07-29T07:11:44;5.85;;;2.20;;
47545;SDS011;50104;52.002;4.688;2022-07-29T07:16:45;2.65;;;1.80;;
47545;SDS011;50104;52.002;4.688;2022-07-29T07:21:49;3.08;;;1.95;;
47545;SDS011;50104;52.002;4.688;2022-07-29T07:26:50;3.33;;;2.00;;
47545;SDS011;50104;52.002;4.688;2022-07-29T07:31:51;3.78;;;2.20;;
47545;SDS011;50104;52.002;4.688;2022-07-29T07:36:52;3.08;;;2.08;;
47545;SDS011;50104;52.002;4.688;2022-07-29T07:41:53;2.78;;;2.10;;
47545;SDS011;50104;52.002;4.688;2022-07-29T07:46:54;3.83;;;2.08;;
47545;SDS011;50104;52.002;4.688;2022-07-29T07:51:55;4.53;;;2.47;;
47545;SDS011;50104;52.002;4.688;2022-07-29T07:56:56;3.20;;;2.00;;
47545;SDS011;50104;52.002;4.688;2022-07-29T08:01:57;3.60;;;2.13;;
47545;SDS011;50104;52.002;4.688;2022-07-29T08:06:58;4.97;;;2.60;;
47545;SDS011;50104;52.002;4.688;2022-07-29T08:12:00;5.07;;;2.45;;
47545;SDS011;50104;52.002;4.688;2022-07-29T08:17:05;2.78;;;2.00;;
47545;SDS011;50104;52.002;4.688;2022-07-29T08:22:06;5.28;;;2.65;;
47545;SDS011;50104;52.002;4.688;2022-07-29T08:27:07;9.13;;;2.42;;
47545;SDS011;50104;52.002;4.688;2022-07-29T08:32:09;4.75;;;2.17;;
47545;SDS011;50104;52.002;4.688;2022-07-29T08:37:10;3.95;;;2.10;;
47545;SDS011;50104;52.002;4.688;2022-07-29T08:42:11;3.55;;;2.05;;
47545;SDS011;50104;52.002;4.688;2022-07-29T08:47:15;4.30;;;2.30;;
47545;SDS011;50104;52.002;4.688;2022-07-29T08:52:16;3.42;;;1.85;;
47545;SDS011;50104;52.002;4.688;2022-07-29T08:57:19;2.40;;;1.70;;
47545;SDS011;50104;52.002;4.688;2022-07-29T09:02:21;3.42;;;1.80;;
47545;SDS011;50104;52.002;4.688;2022-07-29T09:07:22;4.70;;;2.05;;
47545;SDS011;50104;52.002;4.688;2022-07-29T09:12:23;5.07;;;1.92;;
47545;SDS011;50104;52.002;4.688;2022-07-29T09:22:46;4.63;;;2.15;;
47545;SDS011;50104;52.002;4.688;2022-07-29T09:27:49;5.95;;;2.10;;
47545;SDS011;50104;52.002;4.688;2022-07-29T09:32:54;4.35;;;2.50;;
47545;SDS011;50104;52.002;4.688;2022-07-29T09:38:09;3.47;;;1.90;;
47545;SDS011;50104;52.002;4.688;2022-07-29T09:43:12;5.55;;;1.98;;
47545;SDS011;50104;52.002;4.688;2022-07-29T09:48:17;1.88;;;1.65;;
47545;SDS011;50104;52.002;4.688;2022-07-29T09:53:34;8.60;;;2.42;;
47545;SDS011;50104;52.002;4.688;2022-07-29T09:58:39;3.77;;;2.27;;
47545;SDS011;50104;52.002;4.688;2022-07-29T10:03:50;6.18;;;2.00;;
47545;SDS011;50104;52.002;4.688;2022-07-29T10:08:52;5.22;;;2.05;;
47545;SDS011;50104;52.002;4.688;2022-07-29T10:13:54;5.28;;;2.20;;
47545;SDS011;50104;52.002;4.688;2022-07-29T10:18:55;5.70;;;2.00;;
47545;SDS011;50104;52.002;4.688;2022-07-29T10:23:56;2.10;;;1.83;;
47545;SDS011;50104;52.002;4.688;2022-07-29T10:28:58;2.75;;;1.90;;
47545;SDS011;50104;52.002;4.688;2022-07-29T10:39:41;6.05;;;2.20;;
47545;SDS011;50104;52.002;4.688;2022-07-29T10:45:47;4.70;;;1.70;;
47545;SDS011;50104;52.002;4.688;2022-07-29T10:50:57;5.95;;;1.75;;
47545;SDS011;50104;52.002;4.688;2022-07-29T10:56:01;9.68;;;2.22;;
47545;SDS011;50104;52.002;4.688;2022-07-29T11:01:02;3.60;;;1.60;;
47545;SDS011;50104;52.002;4.688;2022-07-29T11:11:58;3.30;;;1.33;;
47545;SDS011;50104;52.002;4.688;2022-07-29T11:17:01;1.90;;;1.73;;
47545;SDS011;50104;52.002;4.688;2022-07-29T11:22:07;5.10;;;1.70;;
47545;SDS011;50104;52.002;4.688;2022-07-29T11:32:17;8.30;;;2.00;;
47545;SDS011;50104;52.002;4.688;2022-07-29T11:37:21;5.10;;;1.50;;
47545;SDS011;50104;52.002;4.688;2022-07-29T11:47:28;5.82;;;2.00;;
47545;SDS011;50104;52.002;4.688;2022-07-29T11:52:36;8.90;;;1.47;;
47545;SDS011;50104;52.002;4.688;2022-07-29T11:57:57;4.78;;;1.80;;
47545;SDS011;50104;52.002;4.688;2022-07-29T12:03:01;4.65;;;1.33;;
47545;SDS011;50104;52.002;4.688;2022-07-29T12:08:07;6.45;;;1.23;;
47545;SDS011;50104;52.002;4.688;2022-07-29T12:13:21;4.32;;;1.27;;
47545;SDS011;50104;52.002;4.688;2022-07-29T12:18:25;4.90;;;1.70;;
47545;SDS011;50104;52.002;4.688;2022-07-29T12:23:26;3.67;;;1.17;;
47545;SDS011;50104;52.002;4.688;2022-07-29T12:28:27;2.58;;;1.67;;
47545;SDS011;50104;52.002;4.688;2022-07-29T12:33:28;7.28;;;1.70;;
47545;SDS011;50104;52.002;4.688;2022-07-29T12:38:29;3.15;;;1.30;;
47545;SDS011;50104;52.002;4.688;2022-07-29T12:43:30;1.95;;;1.17;;
47545;SDS011;50104;52.002;4.688;2022-07-29T12:48:35;5.20;;;1.58;;
47545;SDS011;50104;52.002;4.688;2022-07-29T12:53:38;6.90;;;2.15;;
47545;SDS011;50104;52.002;4.688;2022-07-29T12:58:40;5.43;;;1.98;;
47545;SDS011;50104;52.002;4.688;2022-07-29T13:14:33;7.28;;;1.52;;
47545;SDS011;50104;52.002;4.688;2022-07-29T13:19:40;2.73;;;1.50;;
47545;SDS011;50104;52.002;4.688;2022-07-29T13:29:56;3.88;;;1.55;;
47545;SDS011;50104;52.002;4.688;2022-07-29T13:35:04;2.90;;;2.15;;
47545;SDS011;50104;52.002;4.688;2022-07-29T13:40:07;6.72;;;2.00;;
47545;SDS011;50104;52.002;4.688;2022-07-29T13:45:10;5.05;;;1.77;;
47545;SDS011;50104;52.002;4.688;2022-07-29T13:50:11;4.93;;;2.15;;
47545;SDS011;50104;52.002;4.688;2022-07-29T13:55:12;5.32;;;2.10;;
47545;SDS011;50104;52.002;4.688;2022-07-29T14:00:13;3.17;;;1.73;;
47545;SDS011;50104;52.002;4.688;2022-07-29T14:05:15;3.65;;;1.88;;
47545;SDS011;50104;52.002;4.688;2022-07-29T14:10:16;4.22;;;1.75;;
47545;SDS011;50104;52.002;4.688;2022-07-29T14:15:17;3.05;;;1.33;;
47545;SDS011;50104;52.002;4.688;2022-07-29T14:20:17;4.43;;;1.65;;
47545;SDS011;50104;52.002;4.688;2022-07-29T14:25:19;3.95;;;1.40;;
47545;SDS011;50104;52.002;4.688;2022-07-29T14:30:20;4.55;;;1.25;;
47545;SDS011;50104;52.002;4.688;2022-07-29T14:35:21;3.90;;;1.33;;
47545;SDS011;50104;52.002;4.688;2022-07-29T14:40:22;7.75;;;1.58;;
47545;SDS011;50104;52.002;4.688;2022-07-29T14:45:23;10.27;;;1.55;;
47545;SDS011;50104;52.002;4.688;2022-07-29T14:50:24;4.38;;;1.13;;
47545;SDS011;50104;52.002;4.688;2022-07-29T14:55:29;4.00;;;1.48;;
47545;SDS011;50104;52.002;4.688;2022-07-29T15:00:30;2.80;;;1.30;;
47545;SDS011;50104;52.002;4.688;2022-07-29T15:05:32;3.58;;;1.10;;
47545;SDS011;50104;52.002;4.688;2022-07-29T15:10:34;4.70;;;1.42;;
47545;SDS011;50104;52.002;4.688;2022-07-29T15:15:36;6.38;;;1.08;;
47545;SDS011;50104;52.002;4.688;2022-07-29T15:20:37;3.90;;;1.63;;
47545;SDS011;50104;52.002;4.688;2022-07-29T15:25:38;4.05;;;1.13;;
47545;SDS011;50104;52.002;4.688;2022-07-29T15:30:39;2.33;;;1.27;;
47545;SDS011;50104;52.002;4.688;2022-07-29T15:35:43;4.15;;;1.63;;
47545;SDS011;50104;52.002;4.688;2022-07-29T15:40:44;2.65;;;1.30;;
47545;SDS011;50104;52.002;4.688;2022-07-29T15:45:46;4.93;;;1.50;;
47545;SDS011;50104;52.002;4.688;2022-07-29T15:51:05;4.43;;;1.20;;
47545;SDS011;50104;52.002;4.688;2022-07-29T15:56:06;4.57;;;1.42;;
47545;SDS011;50104;52.002;4.688;2022-07-29T16:01:07;3.42;;;1.20;;
47545;SDS011;50104;52.002;4.688;2022-07-29T16:06:08;2.67;;;0.93;;
47545;SDS011;50104;52.002;4.688;2022-07-29T16:11:09;4.50;;;1.30;;
47545;SDS011;50104;52.002;4.688;2022-07-29T16:16:10;1.77;;;1.00;;
47545;SDS011;50104;52.002;4.688;2022-07-29T16:21:11;2.80;;;1.25;;
47545;SDS011;50104;52.002;4.688;2022-07-29T16:26:12;3.95;;;1.70;;
47545;SDS011;50104;52.002;4.688;2022-07-29T16:31:13;3.35;;;0.90;;
47545;SDS011;50104;52.002;4.688;2022-07-29T16:36:15;3.97;;;1.10;;
47545;SDS011;50104;52.002;4.688;2022-07-29T16:41:16;3.58;;;1.35;;
47545;SDS011;50104;52.002;4.688;2022-07-29T16:46:17;1.95;;;1.10;;
47545;SDS011;50104;52.002;4.688;2022-07-29T16:51:19;3.30;;;1.40;;
47545;SDS011;50104;52.002;4.688;2022-07-29T16:56:20;4.93;;;1.08;;
47545;SDS011;50104;52.002;4.688;2022-07-29T17:01:21;5.00;;;1.55;;
47545;SDS011;50104;52.002;4.688;2022-07-29T17:06:22;4.78;;;1.13;;
47545;SDS011;50104;52.002;4.688;2022-07-29T17:11:23;4.20;;;1.40;;
47545;SDS011;50104;52.002;4.688;2022-07-29T17:16:27;1.92;;;1.23;;
47545;SDS011;50104;52.002;4.688;2022-07-29T17:21:28;3.03;;;0.88;;
47545;SDS011;50104;52.002;4.688;2022-07-29T17:26:29;5.43;;;0.90;;
47545;SDS011;50104;52.002;4.688;2022-07-29T17:31:29;3.08;;;1.60;;
47545;SDS011;50104;52.002;4.688;2022-07-29T17:36:30;4.28;;;1.00;;
47545;SDS011;50104;52.002;4.688;2022-07-29T17:41:31;5.10;;;1.38;;
47545;SDS011;50104;52.002;4.688;2022-07-29T17:46:32;3.70;;;1.55;;
47545;SDS011;50104;52.002;4.688;2022-07-29T17:51:33;1.95;;;1.20;;
47545;SDS011;50104;52.002;4.688;2022-07-29T17:56:34;4.78;;;1.33;;
47545;SDS011;50104;52.002;4.688;2022-07-29T18:01:35;3.53;;;1.40;;
47545;SDS011;50104;52.002;4.688;2022-07-29T18:06:38;6.57;;;1.45;;
47545;SDS011;50104;52.002;4.688;2022-07-29T18:11:39;4.93;;;1.30;;
47545;SDS011;50104;52.002;4.688;2022-07-29T18:16:40;3.38;;;1.55;;
47545;SDS011;50104;52.002;4.688;2022-07-29T18:21:41;6.68;;;1.50;;
47545;SDS011;50104;52.002;4.688;2022-07-29T18:26:41;6.40;;;1.40;;
47545;SDS011;50104;52.002;4.688;2022-07-29T18:31:42;4.78;;;1.40;;
47545;SDS011;50104;52.002;4.688;2022-07-29T18:36:43;7.50;;;2.22;;
47545;SDS011;50104;52.002;4.688;2022-07-29T18:41:44;5.10;;;2.10;;
47545;SDS011;50104;52.002;4.688;2022-07-29T18:46:45;8.27;;;2.03;;
47545;SDS011;50104;52.002;4.688;2022-07-29T18:51:46;5.70;;;1.95;;
47545;SDS011;50104;52.002;4.688;2022-07-29T18:56:48;5.43;;;1.83;;
47545;SDS011;50104;52.002;4.688;2022-07-29T19:01:49;4.05;;;1.90;;
47545;SDS011;50104;52.002;4.688;2022-07-29T19:06:50;6.53;;;1.88;;
47545;SDS011;50104;52.002;4.688;2022-07-29T19:11:51;6.95;;;1.73;;
47545;SDS011;50104;52.002;4.688;2022-07-29T19:16:52;7.13;;;1.75;;
47545;SDS011;50104;52.002;4.688;2022-07-29T19:21:53;6.53;;;2.08;;
47545;SDS011;50104;52.002;4.688;2022-07-29T19:26:54;10.52;;;2.35;;
47545;SDS011;50104;52.002;4.688;2022-07-29T19:31:56;4.60;;;1.73;;
47545;SDS011;50104;52.002;4.688;2022-07-29T19:36:59;4.40;;;1.80;;
47545;SDS011;50104;52.002;4.688;2022-07-29T19:41:59;8.07;;;2.00;;
47545;SDS011;50104;52.002;4.688;2022-07-29T19:47:01;6.72;;;2.33;;
47545;SDS011;50104;52.002;4.688;2022-07-29T19:52:03;4.53;;;2.40;;
47545;SDS011;50104;52.002;4.688;2022-07-29T19:57:04;5.13;;;2.47;;
47545;SDS011;50104;52.002;4.688;2022-07-29T20:02:04;10.68;;;2.70;;
47545;SDS011;50104;52.002;4.688;2022-07-29T20:07:06;5.03;;;2.58;;
47545;SDS011;50104;52.002;4.688;2022-07-29T20:12:07;9.88;;;2.50;;
47545;SDS011;50104;52.002;4.688;2022-07-29T20:17:09;5.07;;;2.47;;
47545;SDS011;50104;52.002;4.688;2022-07-29T20:22:10;5.47;;;2.88;;
47545;SDS011;50104;52.002;4.688;2022-07-29T20:27:11;10.20;;;3.50;;
47545;SDS011;50104;52.002;4.688;2022-07-29T20:32:12;8.95;;;3.30;;
47545;SDS011;50104;52.002;4.688;2022-07-29T20:37:13;8.93;;;2.95;;
47545;SDS011;50104;52.002;4.688;2022-07-29T20:42:15;6.00;;;3.00;;
47545;SDS011;50104;52.002;4.688;2022-07-29T20:47:16;7.13;;;2.95;;
47545;SDS011;50104;52.002;4.688;2022-07-29T20:52:17;9.10;;;3.53;;
47545;SDS011;50104;52.002;4.688;2022-07-29T20:57:18;8.68;;;2.83;;
47545;SDS011;50104;52.002;4.688;2022-07-29T21:02:19;10.20;;;3.00;;
47545;SDS011;50104;52.002;4.688;2022-07-29T21:07:20;4.97;;;2.70;;
47545;SDS011;50104;52.002;4.688;2022-07-29T21:12:21;10.05;;;3.17;;
47545;SDS011;50104;52.002;4.688;2022-07-29T21:17:21;7.75;;;2.63;;
47545;SDS011;50104;52.002;4.688;2022-07-29T21:22:22;7.22;;;2.75;;
47545;SDS011;50104;52.002;4.688;2022-07-29T21:27:23;8.23;;;4.72;;
47545;SDS011;50104;52.002;4.688;2022-07-29T21:32:42;8.23;;;3.90;;
47545;SDS011;50104;52.002;4.688;2022-07-29T21:37:43;6.10;;;2.85;;
47545;SDS011;50104;52.002;4.688;2022-07-29T21:42:44;10.50;;;3.17;;
47545;SDS011;50104;52.002;4.688;2022-07-29T21:47:44;7.22;;;3.10;;
47545;SDS011;50104;52.002;4.688;2022-07-29T21:52:45;7.60;;;2.70;;
47545;SDS011;50104;52.002;4.688;2022-07-29T21:57:46;6.22;;;3.08;;
47545;SDS011;50104;52.002;4.688;2022-07-29T22:02:47;10.13;;;3.63;;
47545;SDS011;50104;52.002;4.688;2022-07-29T22:07:57;9.10;;;3.55;;
47545;SDS011;50104;52.002;4.688;2022-07-29T22:13:09;6.68;;;3.38;;
47545;SDS011;50104;52.002;4.688;2022-07-29T22:18:24;11.23;;;4.05;;
47545;SDS011;50104;52.002;4.688;2022-07-29T22:23:35;9.48;;;3.78;;
47545;SDS011;50104;52.002;4.688;2022-07-29T22:28:51;7.88;;;4.03;;
47545;SDS011;50104;52.002;4.688;2022-07-29T22:34:07;8.60;;;3.90;;
47545;SDS011;50104;52.002;4.688;2022-07-29T22:39:26;11.32;;;4.50;;
47545;SDS011;50104;52.002;4.688;2022-07-29T22:44:27;9.57;;;4.68;;
47545;SDS011;50104;52.002;4.688;2022-07-29T22:49:28;8.35;;;4.55;;
47545;SDS011;50104;52.002;4.688;2022-07-29T22:54:29;7.20;;;3.83;;
47545;SDS011;50104;52.002;4.688;2022-07-29T22:59:30;7.65;;;4.30;;
47545;SDS011;50104;52.002;4.688;2022-07-29T23:04:31;6.47;;;3.60;;
47545;SDS011;50104;52.002;4.688;2022-07-29T23:09:32;9.18;;;3.67;;
47545;SDS011;50104;52.002;4.688;2022-07-29T23:14:33;7.78;;;4.25;;
47545;SDS011;50104;52.002;4.688;2022-07-29T23:19:34;9.38;;;3.75;;
47545;SDS011;50104;52.002;4.688;2022-07-29T23:24:35;9.23;;;3.83;;
47545;SDS011;50104;52.002;4.688;2022-07-29T23:29:35;7.75;;;3.92;;
47545;SDS011;50104;52.002;4.688;2022-07-29T23:34:36;5.97;;;4.55;;
47545;SDS011;50104;52.002;4.688;2022-07-29T23:39:37;9.32;;;4.18;;
47545;SDS011;50104;52.002;4.688;2022-07-29T23:44:38;12.43;;;4.30;;
47545;SDS011;50104;52.002;4.688;2022-07-29T23:49:38;11.27;;;5.22;;
47545;SDS011;50104;52.002;4.688;2022-07-29T23:54:39;9.25;;;4.45;;
47545;SDS011;50104;52.002;4.688;2022-07-29T23:59:40;8.20;;;5.10;;
